sensor_id;sensor_type;location;lat;lon;timestamp;pressure;altitude;pressure_sealevel;temperature;humidity
15314;BME280;7757;52.626;4.746;2023-06-19T00:01:34;100567.78;;;24.71;57.01
15314;BME280;7757;52.626;4.746;2023-06-19T00:04:03;100435.09;;;24.06;56.19
15314;BME280;7757;52.626;4.746;2023-06-19T00:06:28;100491.75;;;24.34;56.61
15314;BME280;7757;52.626;4.746;2023-06-19T00:08:53;100555.72;;;24.33;59.40
15314;BME280;7757;52.626;4.746;2023-06-19T00:11:19;100406.09;;;23.76;57.48
15314;BME280;7757;52.626;4.746;2023-06-19T00:13:46;100468.91;;;24.20;57.53
15314;BME280;7757;52.626;4.746;2023-06-19T00:16:11;100215.66;;;22.75;57.13
15314;BME280;7757;52.626;4.746;2023-06-19T00:18:36;100557.66;;;24.66;57.97
15314;BME280;7757;52.626;4.746;2023-06-19T00:21:08;100512.53;;;24.35;58.21
15314;BME280;7757;52.626;4.746;2023-06-19T00:23:36;100453.09;;;24.17;57.65
15314;BME280;7757;52.626;4.746;2023-06-19T00:26:02;100522.34;;;24.41;58.11
15314;BME280;7757;52.626;4.746;2023-06-19T00:28:29;100473.19;;;24.31;57.18
15314;BME280;7757;52.626;4.746;2023-06-19T00:30:55;100529.19;;;24.72;56.57
15314;BME280;7757;52.626;4.746;2023-06-19T00:33:20;100541.75;;;24.73;56.28
15314;BME280;7757;52.626;4.746;2023-06-19T00:35:47;100557.25;;;24.88;56.25
15314;BME280;7757;52.626;4.746;2023-06-19T00:38:13;100552.31;;;24.90;55.95
15314;BME280;7757;52.626;4.746;2023-06-19T00:40:38;100454.16;;;24.21;55.75
15314;BME280;7757;52.626;4.746;2023-06-19T00:43:06;100359.47;;;23.62;55.46
15314;BME280;7757;52.626;4.746;2023-06-19T00:45:31;100506.59;;;24.57;55.52
15314;BME280;7757;52.626;4.746;2023-06-19T00:47:59;100562.69;;;24.93;55.20
15314;BME280;7757;52.626;4.746;2023-06-19T00:50:25;100558.66;;;24.85;55.25
15314;BME280;7757;52.626;4.746;2023-06-19T00:52:54;100482.47;;;24.35;54.86
15314;BME280;7757;52.626;4.746;2023-06-19T00:55:19;100535.28;;;24.64;54.89
15314;BME280;7757;52.626;4.746;2023-06-19T00:57:46;100543.69;;;24.73;54.77
15314;BME280;7757;52.626;4.746;2023-06-19T01:00:11;100540.63;;;24.74;54.35
15314;BME280;7757;52.626;4.746;2023-06-19T01:02:43;100462.56;;;24.29;53.84
15314;BME280;7757;52.626;4.746;2023-06-19T01:05:09;100452.22;;;24.21;52.96
15314;BME280;7757;52.626;4.746;2023-06-19T01:07:46;100480.25;;;24.37;52.59
15314;BME280;7757;52.626;4.746;2023-06-19T01:10:28;100476.69;;;24.36;51.76
15314;BME280;7757;52.626;4.746;2023-06-19T01:13:01;100293.41;;;23.16;52.68
15314;BME280;7757;52.626;4.746;2023-06-19T01:15:28;100467.19;;;24.29;52.05
15314;BME280;7757;52.626;4.746;2023-06-19T01:17:56;100552.63;;;24.83;52.13
15314;BME280;7757;52.626;4.746;2023-06-19T01:20:23;100554.03;;;24.81;52.00
15314;BME280;7757;52.626;4.746;2023-06-19T01:22:48;100548.84;;;24.74;51.43
15314;BME280;7757;52.626;4.746;2023-06-19T01:25:16;100437.28;;;24.09;52.24
15314;BME280;7757;52.626;4.746;2023-06-19T01:27:42;100554.31;;;24.74;52.19
15314;BME280;7757;52.626;4.746;2023-06-19T01:30:09;100534.53;;;24.54;52.56
15314;BME280;7757;52.626;4.746;2023-06-19T01:32:50;100565.81;;;24.71;52.35
15314;BME280;7757;52.626;4.746;2023-06-19T01:35:21;100563.97;;;24.67;52.87
15314;BME280;7757;52.626;4.746;2023-06-19T01:37:49;100556.59;;;24.67;52.90
15314;BME280;7757;52.626;4.746;2023-06-19T01:40:15;100542.78;;;24.49;52.82
15314;BME280;7757;52.626;4.746;2023-06-19T01:42:42;100539.22;;;24.48;53.53
15314;BME280;7757;52.626;4.746;2023-06-19T01:45:08;100423.50;;;23.80;53.26
15314;BME280;7757;52.626;4.746;2023-06-19T01:47:34;100528.38;;;24.33;54.40
15314;BME280;7757;52.626;4.746;2023-06-19T01:50:00;100546.69;;;24.37;54.80
15314;BME280;7757;52.626;4.746;2023-06-19T01:52:25;100559.38;;;24.62;54.43
15314;BME280;7757;52.626;4.746;2023-06-19T01:54:51;100555.59;;;24.53;55.14
15314;BME280;7757;52.626;4.746;2023-06-19T01:57:16;100525.53;;;24.48;55.16
15314;BME280;7757;52.626;4.746;2023-06-19T01:59:43;100539.50;;;24.47;55.14
15314;BME280;7757;52.626;4.746;2023-06-19T02:02:08;100497.38;;;24.14;55.63
15314;BME280;7757;52.626;4.746;2023-06-19T02:04:34;100451.59;;;23.91;56.11
15314;BME280;7757;52.626;4.746;2023-06-19T02:07:03;100488.34;;;24.13;55.61
15314;BME280;7757;52.626;4.746;2023-06-19T02:09:38;100453.59;;;23.75;56.50
15314;BME280;7757;52.626;4.746;2023-06-19T02:12:03;100483.25;;;23.97;56.71
15314;BME280;7757;52.626;4.746;2023-06-19T02:14:29;100509.97;;;24.05;56.48
15314;BME280;7757;52.626;4.746;2023-06-19T02:16:54;100530.69;;;24.16;57.33
15314;BME280;7757;52.626;4.746;2023-06-19T02:19:20;100422.06;;;23.49;56.89
15314;BME280;7757;52.626;4.746;2023-06-19T02:21:45;100479.41;;;23.98;56.72
15314;BME280;7757;52.626;4.746;2023-06-19T02:24:10;100557.06;;;24.40;56.58
15314;BME280;7757;52.626;4.746;2023-06-19T02:26:36;100559.75;;;24.46;57.42
15314;BME280;7757;52.626;4.746;2023-06-19T02:29:01;100425.03;;;23.57;57.08
15314;BME280;7757;52.626;4.746;2023-06-19T02:31:27;100533.06;;;24.27;57.18
15314;BME280;7757;52.626;4.746;2023-06-19T02:33:52;100562.56;;;24.35;57.58
15314;BME280;7757;52.626;4.746;2023-06-19T02:36:17;100555.34;;;24.50;57.05
15314;BME280;7757;52.626;4.746;2023-06-19T02:38:48;100311.34;;;22.73;57.78
15314;BME280;7757;52.626;4.746;2023-06-19T02:41:14;100540.28;;;24.13;57.57
15314;BME280;7757;52.626;4.746;2023-06-19T02:43:44;100565.59;;;24.29;57.96
15314;BME280;7757;52.626;4.746;2023-06-19T02:46:10;100508.06;;;24.05;57.55
15314;BME280;7757;52.626;4.746;2023-06-19T02:48:35;100498.31;;;23.89;58.23
15314;BME280;7757;52.626;4.746;2023-06-19T02:51:07;100507.31;;;23.89;59.04
15314;BME280;7757;52.626;4.746;2023-06-19T02:53:35;100357.31;;;23.00;58.40
15314;BME280;7757;52.626;4.746;2023-06-19T02:56:01;100419.69;;;23.27;59.18
15314;BME280;7757;52.626;4.746;2023-06-19T02:58:26;100551.44;;;24.22;59.06
15314;BME280;7757;52.626;4.746;2023-06-19T03:00:54;100474.69;;;23.59;59.85
15314;BME280;7757;52.626;4.746;2023-06-19T03:03:20;100571.44;;;24.12;60.03
15314;BME280;7757;52.626;4.746;2023-06-19T03:05:45;100564.06;;;24.08;60.16
15314;BME280;7757;52.626;4.746;2023-06-19T03:08:10;100475.56;;;23.55;59.96
15314;BME280;7757;52.626;4.746;2023-06-19T03:10:36;100573.06;;;24.13;60.25
15314;BME280;7757;52.626;4.746;2023-06-19T03:13:01;100520.78;;;23.76;60.27
15314;BME280;7757;52.626;4.746;2023-06-19T03:15:27;100524.34;;;23.76;61.20
15314;BME280;7757;52.626;4.746;2023-06-19T03:17:53;100569.22;;;24.09;60.86
15314;BME280;7757;52.626;4.746;2023-06-19T03:20:21;100458.13;;;23.35;60.73
15314;BME280;7757;52.626;4.746;2023-06-19T03:22:47;100491.13;;;23.54;60.70
15314;BME280;7757;52.626;4.746;2023-06-19T03:25:13;100453.53;;;23.41;60.90
15314;BME280;7757;52.626;4.746;2023-06-19T03:27:38;100428.75;;;23.17;61.05
15314;BME280;7757;52.626;4.746;2023-06-19T03:30:05;100537.38;;;23.89;61.49
15314;BME280;7757;52.626;4.746;2023-06-19T03:32:32;100477.78;;;23.43;61.42
15314;BME280;7757;52.626;4.746;2023-06-19T03:34:58;100569.00;;;24.01;61.37
15314;BME280;7757;52.626;4.746;2023-06-19T03:37:24;100429.31;;;23.09;61.85
15314;BME280;7757;52.626;4.746;2023-06-19T03:39:52;100526.31;;;23.61;61.56
15314;BME280;7757;52.626;4.746;2023-06-19T03:42:17;100588.44;;;23.89;62.84
15314;BME280;7757;52.626;4.746;2023-06-19T03:44:43;100530.09;;;23.65;61.96
15314;BME280;7757;52.626;4.746;2023-06-19T03:47:08;100446.78;;;23.08;62.03
15314;BME280;7757;52.626;4.746;2023-06-19T03:49:34;100436.47;;;22.90;62.20
15314;BME280;7757;52.626;4.746;2023-06-19T03:51:59;100510.53;;;23.38;61.70
15314;BME280;7757;52.626;4.746;2023-06-19T03:54:25;100508.66;;;23.18;61.83
15314;BME280;7757;52.626;4.746;2023-06-19T03:56:51;100587.94;;;23.77;61.11
15314;BME280;7757;52.626;4.746;2023-06-19T03:59:17;100477.13;;;22.76;60.83
15314;BME280;7757;52.626;4.746;2023-06-19T04:01:42;100439.78;;;22.67;59.93
15314;BME280;7757;52.626;4.746;2023-06-19T04:04:08;100626.84;;;23.44;60.40
15314;BME280;7757;52.626;4.746;2023-06-19T04:06:33;100488.56;;;22.53;60.34
15314;BME280;7757;52.626;4.746;2023-06-19T04:08:59;100545.56;;;22.95;59.89
15314;BME280;7757;52.626;4.746;2023-06-19T04:11:24;100479.56;;;22.53;59.53
15314;BME280;7757;52.626;4.746;2023-06-19T04:13:49;100628.47;;;23.40;59.77
15314;BME280;7757;52.626;4.746;2023-06-19T04:16:15;100646.75;;;23.29;59.91
15314;BME280;7757;52.626;4.746;2023-06-19T04:18:40;100443.59;;;22.05;60.04
15314;BME280;7757;52.626;4.746;2023-06-19T04:21:06;100641.56;;;23.12;60.73
15314;BME280;7757;52.626;4.746;2023-06-19T04:23:32;100651.13;;;23.20;61.16
15314;BME280;7757;52.626;4.746;2023-06-19T04:25:58;100625.75;;;22.99;61.45
15314;BME280;7757;52.626;4.746;2023-06-19T04:28:23;100533.25;;;22.42;61.10
15314;BME280;7757;52.626;4.746;2023-06-19T04:30:48;100626.81;;;22.83;62.41
15314;BME280;7757;52.626;4.746;2023-06-19T04:33:20;100575.19;;;22.26;63.94
15314;BME280;7757;52.626;4.746;2023-06-19T04:35:46;100672.38;;;22.98;63.26
15314;BME280;7757;52.626;4.746;2023-06-19T04:38:13;100648.91;;;22.76;63.90
15314;BME280;7757;52.626;4.746;2023-06-19T04:40:39;100676.50;;;23.05;63.34
15314;BME280;7757;52.626;4.746;2023-06-19T04:43:08;100687.09;;;22.76;64.81
15314;BME280;7757;52.626;4.746;2023-06-19T04:45:33;100640.88;;;22.30;66.91
15314;BME280;7757;52.626;4.746;2023-06-19T04:47:59;100594.84;;;21.66;67.59
15314;BME280;7757;52.626;4.746;2023-06-19T04:50:28;100622.84;;;22.13;66.70
15314;BME280;7757;52.626;4.746;2023-06-19T04:52:53;100450.06;;;21.12;65.83
15314;BME280;7757;52.626;4.746;2023-06-19T04:55:19;100497.53;;;21.36;65.49
15314;BME280;7757;52.626;4.746;2023-06-19T04:57:44;100649.69;;;21.43;70.03
15314;BME280;7757;52.626;4.746;2023-06-19T05:00:10;100610.78;;;21.47;68.74
15314;BME280;7757;52.626;4.746;2023-06-19T05:02:36;100711.00;;;21.92;69.67
15314;BME280;7757;52.626;4.746;2023-06-19T05:05:02;100713.53;;;22.09;69.65
15314;BME280;7757;52.626;4.746;2023-06-19T05:07:27;100718.72;;;22.05;69.03
15314;BME280;7757;52.626;4.746;2023-06-19T05:09:52;100648.44;;;21.65;69.05
15314;BME280;7757;52.626;4.746;2023-06-19T05:12:18;100593.16;;;21.13;69.51
15314;BME280;7757;52.626;4.746;2023-06-19T05:14:43;100626.56;;;20.82;71.89
15314;BME280;7757;52.626;4.746;2023-06-19T05:17:09;100632.84;;;21.51;69.33
15314;BME280;7757;52.626;4.746;2023-06-19T05:19:34;100552.63;;;20.48;70.20
15314;BME280;7757;52.626;4.746;2023-06-19T05:22:00;100631.94;;;20.72;71.26
15314;BME280;7757;52.626;4.746;2023-06-19T05:24:32;100681.69;;;21.04;71.25
15314;BME280;7757;52.626;4.746;2023-06-19T05:26:57;100704.88;;;21.38;71.00
15314;BME280;7757;52.626;4.746;2023-06-19T05:29:23;100649.56;;;21.28;69.20
15314;BME280;7757;52.626;4.746;2023-06-19T05:31:55;100581.78;;;20.57;70.23
15314;BME280;7757;52.626;4.746;2023-06-19T05:34:20;100683.66;;;20.82;71.67
15314;BME280;7757;52.626;4.746;2023-06-19T05:36:45;100510.06;;;20.05;70.11
15314;BME280;7757;52.626;4.746;2023-06-19T05:39:15;100385.16;;;19.73;68.54
15314;BME280;7757;52.626;4.746;2023-06-19T05:41:40;100613.38;;;21.27;67.42
15314;BME280;7757;52.626;4.746;2023-06-19T05:44:06;100669.16;;;21.30;68.19
15314;BME280;7757;52.626;4.746;2023-06-19T05:46:31;100763.72;;;21.49;69.92
15314;BME280;7757;52.626;4.746;2023-06-19T05:48:56;100639.25;;;21.03;68.06
15314;BME280;7757;52.626;4.746;2023-06-19T05:51:22;100790.66;;;21.78;69.28
15314;BME280;7757;52.626;4.746;2023-06-19T05:53:47;100444.59;;;19.48;69.57
15314;BME280;7757;52.626;4.746;2023-06-19T05:56:15;100584.44;;;20.52;68.50
15314;BME280;7757;52.626;4.746;2023-06-19T05:58:41;100735.53;;;21.02;70.05
15314;BME280;7757;52.626;4.746;2023-06-19T06:01:09;100511.38;;;19.76;68.54
15314;BME280;7757;52.626;4.746;2023-06-19T06:03:34;100817.28;;;22.02;67.69
15314;BME280;7757;52.626;4.746;2023-06-19T06:06:04;100664.94;;;20.85;68.54
15314;BME280;7757;52.626;4.746;2023-06-19T06:08:30;100753.47;;;21.61;68.20
15314;BME280;7757;52.626;4.746;2023-06-19T06:10:56;100572.50;;;20.53;67.09
15314;BME280;7757;52.626;4.746;2023-06-19T06:13:21;100646.31;;;20.99;67.17
15314;BME280;7757;52.626;4.746;2023-06-19T06:15:47;100676.16;;;21.21;67.16
15314;BME280;7757;52.626;4.746;2023-06-19T06:18:12;100777.88;;;21.83;67.02
15314;BME280;7757;52.626;4.746;2023-06-19T06:20:37;100836.00;;;22.36;65.93
15314;BME280;7757;52.626;4.746;2023-06-19T06:23:03;100791.56;;;21.88;66.87
15314;BME280;7757;52.626;4.746;2023-06-19T06:25:28;100643.84;;;20.97;66.00
15314;BME280;7757;52.626;4.746;2023-06-19T06:27:54;100806.34;;;21.97;66.03
15314;BME280;7757;52.626;4.746;2023-06-19T06:30:25;100864.31;;;22.30;66.42
15314;BME280;7757;52.626;4.746;2023-06-19T06:32:52;100867.69;;;22.47;65.46
15314;BME280;7757;52.626;4.746;2023-06-19T06:35:18;100760.41;;;21.79;64.82
15314;BME280;7757;52.626;4.746;2023-06-19T06:37:43;100862.28;;;22.52;64.78
15314;BME280;7757;52.626;4.746;2023-06-19T06:40:11;100832.22;;;22.37;64.71
15314;BME280;7757;52.626;4.746;2023-06-19T06:42:37;100808.13;;;22.18;63.98
15314;BME280;7757;52.626;4.746;2023-06-19T06:45:07;100884.78;;;22.74;64.67
15314;BME280;7757;52.626;4.746;2023-06-19T06:47:34;100803.31;;;22.36;63.75
15314;BME280;7757;52.626;4.746;2023-06-19T06:49:59;100827.88;;;22.41;62.57
15314;BME280;7757;52.626;4.746;2023-06-19T06:52:25;100823.13;;;22.26;63.43
15314;BME280;7757;52.626;4.746;2023-06-19T06:54:50;100833.38;;;22.51;62.18
15314;BME280;7757;52.626;4.746;2023-06-19T06:57:16;100844.81;;;22.53;62.74
15314;BME280;7757;52.626;4.746;2023-06-19T06:59:41;100825.94;;;22.36;61.63
15314;BME280;7757;52.626;4.746;2023-06-19T07:02:07;100913.50;;;22.92;61.86
15314;BME280;7757;52.626;4.746;2023-06-19T07:04:32;100911.66;;;23.02;61.30
15314;BME280;7757;52.626;4.746;2023-06-19T07:06:57;100929.72;;;23.13;61.35
15314;BME280;7757;52.626;4.746;2023-06-19T07:09:23;100843.03;;;22.68;61.38
15314;BME280;7757;52.626;4.746;2023-06-19T07:11:49;100823.69;;;22.70;60.81
15314;BME280;7757;52.626;4.746;2023-06-19T07:14:15;100890.38;;;22.99;61.39
15314;BME280;7757;52.626;4.746;2023-06-19T07:16:43;100930.31;;;23.20;61.15
15314;BME280;7757;52.626;4.746;2023-06-19T07:19:10;100933.34;;;23.29;61.35
15314;BME280;7757;52.626;4.746;2023-06-19T07:21:35;100794.34;;;22.40;61.08
15314;BME280;7757;52.626;4.746;2023-06-19T07:24:01;100923.13;;;23.09;61.22
15314;BME280;7757;52.626;4.746;2023-06-19T07:26:27;100947.53;;;23.31;60.63
15314;BME280;7757;52.626;4.746;2023-06-19T07:28:52;100916.09;;;23.18;60.23
15314;BME280;7757;52.626;4.746;2023-06-19T07:31:24;100886.00;;;22.98;60.48
15314;BME280;7757;52.626;4.746;2023-06-19T07:33:49;100849.03;;;22.70;59.93
15314;BME280;7757;52.626;4.746;2023-06-19T07:36:15;100979.06;;;23.69;59.76
15314;BME280;7757;52.626;4.746;2023-06-19T07:38:45;100976.63;;;23.67;59.41
15314;BME280;7757;52.626;4.746;2023-06-19T07:41:11;100969.81;;;23.70;58.86
15314;BME280;7757;52.626;4.746;2023-06-19T07:43:39;100850.00;;;23.06;58.78
15314;BME280;7757;52.626;4.746;2023-06-19T07:46:09;100886.31;;;23.12;58.54
15314;BME280;7757;52.626;4.746;2023-06-19T07:48:35;100826.22;;;22.92;58.85
15314;BME280;7757;52.626;4.746;2023-06-19T07:51:00;100897.34;;;23.42;58.61
15314;BME280;7757;52.626;4.746;2023-06-19T07:53:25;100931.81;;;23.63;58.24
15314;BME280;7757;52.626;4.746;2023-06-19T07:55:51;100864.81;;;23.30;58.22
15314;BME280;7757;52.626;4.746;2023-06-19T07:58:16;100852.78;;;23.26;58.10
15314;BME280;7757;52.626;4.746;2023-06-19T08:00:42;100815.34;;;23.07;57.98
15314;BME280;7757;52.626;4.746;2023-06-19T08:03:10;100895.75;;;23.56;57.72
15314;BME280;7757;52.626;4.746;2023-06-19T08:05:35;101001.59;;;24.21;57.71
15314;BME280;7757;52.626;4.746;2023-06-19T08:08:04;100955.09;;;23.96;57.71
15314;BME280;7757;52.626;4.746;2023-06-19T08:10:29;101005.44;;;24.30;57.19
15314;BME280;7757;52.626;4.746;2023-06-19T08:12:57;100976.47;;;24.14;57.26
15314;BME280;7757;52.626;4.746;2023-06-19T08:15:23;101010.09;;;24.40;57.02
15314;BME280;7757;52.626;4.746;2023-06-19T08:17:48;100938.97;;;23.95;56.47
15314;BME280;7757;52.626;4.746;2023-06-19T08:20:13;100952.94;;;24.08;56.22
15314;BME280;7757;52.626;4.746;2023-06-19T08:22:39;101018.84;;;24.52;56.38
15314;BME280;7757;52.626;4.746;2023-06-19T08:25:05;100953.75;;;24.09;56.18
15314;BME280;7757;52.626;4.746;2023-06-19T08:27:30;101019.69;;;24.53;56.04
15314;BME280;7757;52.626;4.746;2023-06-19T08:29:56;100989.03;;;24.30;56.14
15314;BME280;7757;52.626;4.746;2023-06-19T08:32:21;100951.03;;;24.09;55.85
15314;BME280;7757;52.626;4.746;2023-06-19T08:34:46;100891.97;;;23.72;55.82
15314;BME280;7757;52.626;4.746;2023-06-19T08:37:12;100940.59;;;24.01;56.34
15314;BME280;7757;52.626;4.746;2023-06-19T08:39:37;101030.31;;;24.54;56.12
15314;BME280;7757;52.626;4.746;2023-06-19T08:42:08;101041.28;;;24.59;55.78
15314;BME280;7757;52.626;4.746;2023-06-19T08:44:34;100968.50;;;24.08;55.55
15314;BME280;7757;52.626;4.746;2023-06-19T08:47:02;101030.06;;;24.51;55.65
15314;BME280;7757;52.626;4.746;2023-06-19T08:49:37;100894.41;;;23.64;55.85
15314;BME280;7757;52.626;4.746;2023-06-19T08:52:03;101037.72;;;24.54;55.67
15314;BME280;7757;52.626;4.746;2023-06-19T08:54:29;100953.19;;;24.07;55.40
15314;BME280;7757;52.626;4.746;2023-06-19T08:56:54;100912.19;;;23.81;54.79
15314;BME280;7757;52.626;4.746;2023-06-19T08:59:20;100918.75;;;23.91;55.18
15314;BME280;7757;52.626;4.746;2023-06-19T09:01:50;100918.19;;;23.88;55.06
15314;BME280;7757;52.626;4.746;2023-06-19T09:04:18;101077.94;;;24.83;54.91
15314;BME280;7757;52.626;4.746;2023-06-19T09:06:52;101084.25;;;24.89;54.70
15314;BME280;7757;52.626;4.746;2023-06-19T09:09:22;101082.91;;;24.91;54.22
15314;BME280;7757;52.626;4.746;2023-06-19T09:14:40;101057.44;;;24.71;54.39
15314;BME280;7757;52.626;4.746;2023-06-19T09:17:07;101009.00;;;24.41;54.50
15314;BME280;7757;52.626;4.746;2023-06-19T09:19:35;100982.75;;;24.30;54.47
15314;BME280;7757;52.626;4.746;2023-06-19T09:22:05;101075.50;;;24.82;54.50
15314;BME280;7757;52.626;4.746;2023-06-19T09:24:39;101067.28;;;24.82;53.96
15314;BME280;7757;52.626;4.746;2023-06-19T09:27:09;101094.38;;;25.09;54.08
15314;BME280;7757;52.626;4.746;2023-06-19T09:29:38;101064.25;;;24.73;54.30
15314;BME280;7757;52.626;4.746;2023-06-19T09:32:24;101105.59;;;25.12;53.88
15314;BME280;7757;52.626;4.746;2023-06-19T09:34:54;101068.38;;;24.91;53.70
15314;BME280;7757;52.626;4.746;2023-06-19T09:37:30;100958.69;;;24.17;53.55
15314;BME280;7757;52.626;4.746;2023-06-19T09:40:01;101023.50;;;24.62;53.64
15314;BME280;7757;52.626;4.746;2023-06-19T09:42:36;101113.25;;;25.20;53.32
15314;BME280;7757;52.626;4.746;2023-06-19T09:45:03;101004.38;;;24.47;53.22
15314;BME280;7757;52.626;4.746;2023-06-19T09:47:42;101019.38;;;24.69;53.51
15314;BME280;7757;52.626;4.746;2023-06-19T09:50:11;101053.63;;;24.82;53.34
15314;BME280;7757;52.626;4.746;2023-06-19T09:52:38;101118.44;;;25.17;53.50
15314;BME280;7757;52.626;4.746;2023-06-19T09:55:04;101091.34;;;25.10;53.04
15314;BME280;7757;52.626;4.746;2023-06-19T09:57:31;101068.09;;;24.98;52.86
15314;BME280;7757;52.626;4.746;2023-06-19T09:59:59;101042.09;;;24.80;53.04
15314;BME280;7757;52.626;4.746;2023-06-19T10:02:33;101061.78;;;24.92;52.68
15314;BME280;7757;52.626;4.746;2023-06-19T10:05:00;101065.63;;;24.96;52.88
15314;BME280;7757;52.626;4.746;2023-06-19T10:07:32;101074.94;;;25.05;52.56
15314;BME280;7757;52.626;4.746;2023-06-19T10:10:06;101140.56;;;25.45;52.82
15314;BME280;7757;52.626;4.746;2023-06-19T10:12:44;101148.25;;;25.43;52.46
15314;BME280;7757;52.626;4.746;2023-06-19T10:20:31;100917.94;;;24.05;52.26
15314;BME280;7757;52.626;4.746;2023-06-19T10:23:15;101131.28;;;25.36;52.45
15314;BME280;7757;52.626;4.746;2023-06-19T10:28:37;101121.41;;;25.30;52.09
15314;BME280;7757;52.626;4.746;2023-06-19T10:31:05;101163.31;;;25.46;52.44
15314;BME280;7757;52.626;4.746;2023-06-19T10:33:35;101165.50;;;25.44;52.55
15314;BME280;7757;52.626;4.746;2023-06-19T10:36:17;101097.66;;;25.01;51.92
15314;BME280;7757;52.626;4.746;2023-06-19T10:38:43;101173.44;;;25.45;52.25
15314;BME280;7757;52.626;4.746;2023-06-19T10:41:23;101173.97;;;25.42;52.47
15314;BME280;7757;52.626;4.746;2023-06-19T10:44:04;101182.78;;;25.49;52.25
15314;BME280;7757;52.626;4.746;2023-06-19T10:46:33;101187.72;;;25.52;52.32
15314;BME280;7757;52.626;4.746;2023-06-19T10:48:59;101149.91;;;25.34;52.45
15314;BME280;7757;52.626;4.746;2023-06-19T10:51:30;101034.16;;;24.63;52.15
15314;BME280;7757;52.626;4.746;2023-06-19T10:53:56;100975.09;;;24.37;51.76
15314;BME280;7757;52.626;4.746;2023-06-19T10:56:23;101155.09;;;25.51;51.73
15314;BME280;7757;52.626;4.746;2023-06-19T10:58:57;101149.09;;;25.49;51.33
15314;BME280;7757;52.626;4.746;2023-06-19T11:01:22;101012.84;;;24.70;51.45
15314;BME280;7757;52.626;4.746;2023-06-19T11:03:47;101085.31;;;25.18;51.13
15314;BME280;7757;52.626;4.746;2023-06-19T11:06:19;101189.53;;;25.87;51.41
15314;BME280;7757;52.626;4.746;2023-06-19T11:08:50;101184.88;;;25.88;51.33
15314;BME280;7757;52.626;4.746;2023-06-19T11:11:16;101124.97;;;25.41;51.49
15314;BME280;7757;52.626;4.746;2023-06-19T11:13:42;101163.81;;;25.73;51.47
15314;BME280;7757;52.626;4.746;2023-06-19T11:16:07;101057.13;;;25.18;51.25
15314;BME280;7757;52.626;4.746;2023-06-19T11:18:33;101060.38;;;25.30;51.20
15314;BME280;7757;52.626;4.746;2023-06-19T11:20:59;101179.84;;;26.10;50.63
15314;BME280;7757;52.626;4.746;2023-06-19T11:23:29;101186.72;;;26.13;50.70
15314;BME280;7757;52.626;4.746;2023-06-19T11:26:03;101141.00;;;25.93;50.85
15314;BME280;7757;52.626;4.746;2023-06-19T11:28:29;101028.63;;;25.19;50.69
15314;BME280;7757;52.626;4.746;2023-06-19T11:30:59;101051.59;;;25.28;51.10
15314;BME280;7757;52.626;4.746;2023-06-19T11:33:24;101179.59;;;26.17;50.50
15314;BME280;7757;52.626;4.746;2023-06-19T11:35:51;101102.72;;;25.73;50.43
15314;BME280;7757;52.626;4.746;2023-06-19T11:38:21;101187.22;;;26.25;50.43
15314;BME280;7757;52.626;4.746;2023-06-19T11:40:47;101126.00;;;25.80;50.36
15314;BME280;7757;52.626;4.746;2023-06-19T11:43:23;101078.66;;;25.55;50.28
15314;BME280;7757;52.626;4.746;2023-06-19T11:45:49;101173.56;;;26.04;50.87
15314;BME280;7757;52.626;4.746;2023-06-19T11:48:22;101174.72;;;25.93;50.71
15314;BME280;7757;52.626;4.746;2023-06-19T11:50:48;101190.81;;;26.10;50.95
15314;BME280;7757;52.626;4.746;2023-06-19T11:53:13;101041.22;;;25.25;50.38
15314;BME280;7757;52.626;4.746;2023-06-19T11:55:39;101190.25;;;26.23;51.08
15314;BME280;7757;52.626;4.746;2023-06-19T11:58:04;101148.97;;;25.89;50.72
15314;BME280;7757;52.626;4.746;2023-06-19T12:00:29;101195.50;;;26.15;51.01
15314;BME280;7757;52.626;4.746;2023-06-19T12:02:55;101137.19;;;25.84;51.11
15314;BME280;7757;52.626;4.746;2023-06-19T12:05:22;101185.06;;;26.17;51.28
15314;BME280;7757;52.626;4.746;2023-06-19T12:07:47;101192.47;;;26.21;51.05
15314;BME280;7757;52.626;4.746;2023-06-19T12:10:13;101092.09;;;25.56;51.08
15314;BME280;7757;52.626;4.746;2023-06-19T12:12:38;101200.97;;;26.20;50.91
15314;BME280;7757;52.626;4.746;2023-06-19T12:15:05;101135.84;;;25.81;51.05
15314;BME280;7757;52.626;4.746;2023-06-19T12:17:31;101137.19;;;25.84;51.10
15314;BME280;7757;52.626;4.746;2023-06-19T12:19:58;101168.97;;;25.90;51.31
15314;BME280;7757;52.626;4.746;2023-06-19T12:22:23;101086.06;;;25.44;51.04
15314;BME280;7757;52.626;4.746;2023-06-19T12:24:48;101138.31;;;25.83;50.82
15314;BME280;7757;52.626;4.746;2023-06-19T12:27:14;101194.38;;;26.11;51.01
15314;BME280;7757;52.626;4.746;2023-06-19T12:29:39;101177.09;;;26.10;51.02
15314;BME280;7757;52.626;4.746;2023-06-19T12:32:05;101128.19;;;25.73;50.86
15314;BME280;7757;52.626;4.746;2023-06-19T12:34:30;101114.00;;;25.56;50.96
15314;BME280;7757;52.626;4.746;2023-06-19T12:36:56;101144.94;;;25.67;51.18
15314;BME280;7757;52.626;4.746;2023-06-19T12:39:24;101213.31;;;26.12;51.21
15314;BME280;7757;52.626;4.746;2023-06-19T12:41:50;101137.50;;;25.72;51.10
15314;BME280;7757;52.626;4.746;2023-06-19T12:44:16;101213.59;;;26.21;51.05
15314;BME280;7757;52.626;4.746;2023-06-19T12:46:41;101163.50;;;25.95;50.93
15314;BME280;7757;52.626;4.746;2023-06-19T12:49:07;101206.47;;;26.15;51.00
15314;BME280;7757;52.626;4.746;2023-06-19T12:51:33;101212.16;;;26.28;51.09
15314;BME280;7757;52.626;4.746;2023-06-19T12:53:59;101063.63;;;25.37;50.61
15314;BME280;7757;52.626;4.746;2023-06-19T12:56:24;101211.91;;;26.25;51.00
15314;BME280;7757;52.626;4.746;2023-06-19T12:58:49;101118.88;;;25.69;50.95
15314;BME280;7757;52.626;4.746;2023-06-19T13:01:15;101173.34;;;26.01;50.62
15314;BME280;7757;52.626;4.746;2023-06-19T13:03:40;101185.06;;;26.17;50.83
15314;BME280;7757;52.626;4.746;2023-06-19T13:06:06;101064.19;;;25.39;50.99
15314;BME280;7757;52.626;4.746;2023-06-19T13:08:31;101219.84;;;26.36;50.62
15314;BME280;7757;52.626;4.746;2023-06-19T13:10:56;101186.22;;;25.95;51.32